Time;durP1;ratioP1;P1;durP2;ratioP2;P2;SDS_P1;SDS_P2;PMS_P1;PMS_P2;Temp;Humidity;BMP_temperature;BMP_pressure;BME280_temperature;BME280_humidity;BME280_pressure;Samples;Min_cycle;Max_cycle;Signal;HPM_P1;HPM_P2
2022/12/26 15:44:43;;;;;;;6.53;3.95;;;;;;;7.19;78.10;99625.72;4260713;28;153120;-68
2022/12/26 15:47:46;;;;;;;1.45;1.33;;;;;;;7.36;75.91;99628.44;4170941;34;34951;-72
2022/12/26 15:50:36;;;;;;;6.10;5.03;;;;;;;6.48;81.87;99633.69;4151013;34;34371;-72
2022/12/26 15:53:25;;;;;;;3.25;3.00;;;;;;;6.44;83.49;99631.09;4161048;34;34286;-73
2022/12/26 15:56:36;;;;;;;4.18;3.83;;;;;;;7.10;81.60;99629.97;4160860;34;33884;-72
2022/12/26 15:59:10;;;;;;;2.90;2.67;;;;;;;7.06;81.79;99623.91;4162784;34;35092;-72
2022/12/26 16:01:47;;;;;;;3.92;3.62;;;;;;;6.53;83.86;99637.19;4151227;34;34989;-72
2022/12/26 16:04:30;;;;;;;3.17;2.58;;;;;;;5.29;85.45;99642.47;4161171;34;34257;-71
2022/12/26 16:07:20;;;;;;;4.07;3.72;;;;;;;6.25;82.60;99637.78;4160850;34;34023;-71
2022/12/26 16:09:53;;;;;;;3.87;2.90;;;;;;;6.74;79.30;99627.09;4161217;34;35304;-71
2022/12/26 16:12:35;;;;;;;4.07;3.70;;;;;;;6.19;82.38;99627.34;4161048;34;34390;-71
2022/12/26 16:15:11;;;;;;;2.15;2.03;;;;;;;6.29;86.17;99632.66;4161153;34;33364;-72
2022/12/26 16:17:45;;;;;;;1.58;1.48;;;;;;;6.51;84.15;99620.78;4196256;33;33691;-72
2022/12/26 16:23:31;;;;;;;13.35;5.40;;;;;;;6.60;79.62;99623.47;4333572;33;34477;-72
2022/12/26 16:26:04;;;;;;;2.87;2.60;;;;;;;6.77;81.12;99621.06;4343490;33;33573;-71
2022/12/26 16:28:44;;;;;;;3.00;2.70;;;;;;;7.00;80.18;99622.09;4344533;33;34045;-71
2022/12/26 16:31:29;;;;;;;4.00;2.55;;;;;;;6.82;81.52;99615.06;4344762;33;35936;-72
2022/12/26 16:33:59;;;;;;;;;;;;;;;6.40;84.71;99615.50;4344975;33;34365;-72
2022/12/26 16:36:35;;;;;;;2.72;1.60;;;;;;;6.35;85.76;99606.84;4344593;33;33474;-71
2022/12/26 16:39:18;;;;;;;3.12;2.92;;;;;;;6.84;80.03;99603.00;4344317;33;33959;-71
2022/12/26 16:42:05;;;;;;;1.23;1.23;;;;;;;6.80;78.88;99613.31;4331264;33;35023;-71
2022/12/26 16:44:40;;;;;;;2.03;1.77;;;;;;;6.75;79.65;99613.28;4344187;33;34550;-71
2022/12/26 16:47:13;;;;;;;6.72;2.40;;;;;;;6.85;78.62;99606.47;4337440;33;33414;-71
2022/12/26 16:49:45;;;;;;;4.60;2.45;;;;;;;6.54;79.66;99608.75;4334653;33;34666;-71
2022/12/26 16:52:29;;;;;;;1.73;1.62;;;;;;;6.35;83.14;99609.41;4334394;33;35785;-71
2022/12/26 16:55:32;;;;;;;2.35;2.12;;;;;;;6.08;89.77;99613.44;4334431;33;34363;-71
2022/12/26 16:58:23;;;;;;;3.90;3.60;;;;;;;6.84;83.81;99608.16;4334341;33;33441;-72
2022/12/26 17:01:10;;;;;;;1.40;1.37;;;;;;;6.97;77.90;99609.16;4334554;33;33830;-71
2022/12/26 17:03:55;;;;;;;1.97;1.87;;;;;;;6.76;77.84;99614.13;4334377;33;34933;-69
2022/12/26 17:06:26;;;;;;;3.65;3.05;;;;;;;5.90;82.30;99616.62;4334950;33;35268;-71
2022/12/26 17:08:55;;;;;;;1.60;1.50;;;;;;;6.62;79.15;99607.13;4320976;33;33397;-70
2022/12/26 17:11:29;;;;;;;5.10;4.32;;;;;;;6.75;77.93;99608.09;4321438;33;34670;-70
2022/12/26 17:13:59;;;;;;;3.08;2.83;;;;;;;6.81;79.15;99597.81;4334504;33;35881;-70
2022/12/26 17:16:29;;;;;;;0.95;0.95;;;;;;;6.87;77.95;99591.81;4321015;33;35205;-71
2022/12/26 17:19:18;;;;;;;2.28;2.17;;;;;;;6.72;77.42;99599.44;4333250;33;33555;-70
2022/12/26 17:22:14;;;;;;;1.85;1.58;;;;;;;6.69;77.86;99599.41;4334297;33;34653;-70
2022/12/26 17:24:44;;;;;;;1.33;1.23;;;;;;;6.54;79.20;99595.81;4334412;33;35028;-71
2022/12/26 17:27:25;;;;;;;5.00;4.53;;;;;;;6.31;77.97;99589.56;4334047;33;35010;-70
2022/12/26 17:29:53;;;;;;;1.05;1.05;;;;;;;6.37;78.51;99585.31;4334375;33;34098;-71
2022/12/26 17:32:51;;;;;;;11.32;4.32;;;;;;;6.17;78.77;99587.69;4334131;33;34055;-70
2022/12/26 17:35:24;;;;;;;1.80;1.70;;;;;;;6.08;80.51;99582.41;4327738;33;35128;-70
2022/12/26 17:38:03;;;;;;;2.10;1.70;;;;;;;6.25;79.23;99583.47;4333006;33;35136;-71
2022/12/26 17:40:33;;;;;;;9.75;3.70;;;;;;;5.85;83.71;99600.19;4321240;33;33278;-70
2022/12/26 17:43:20;;;;;;;0.85;0.85;;;;;;;6.10;83.85;99598.81;4333701;33;34069;-70
2022/12/26 17:45:49;;;;;;;2.40;2.25;;;;;;;5.90;84.25;99608.88;4334255;33;35037;-71
2022/12/26 17:48:19;;;;;;;4.03;2.95;;;;;;;5.49;84.20;99604.91;4320528;33;33607;-70
2022/12/26 17:51:04;;;;;;;2.08;1.98;;;;;;;5.99;82.92;99603.00;4334270;33;34168;-70
2022/12/26 17:53:47;;;;;;;2.50;2.40;;;;;;;6.08;80.81;99587.59;4334235;33;33476;-70
2022/12/26 17:56:26;;;;;;;0.90;0.90;;;;;;;5.80;80.77;99589.78;4333962;33;35961;-70
2022/12/26 17:59:02;;;;;;;4.75;3.12;;;;;;;5.97;80.73;99578.84;4333002;33;35105;-70
2022/12/26 18:01:36;;;;;;;2.78;2.58;;;;;;;5.54;81.93;99578.25;4334084;33;33181;-71
2022/12/26 18:04:12;;;;;;;3.60;3.30;;;;;;;5.39;83.81;99569.47;4334127;33;34831;-71
2022/12/26 18:06:58;;;;;;;1.73;1.62;;;;;;;6.28;79.00;99572.28;4333859;33;34145;-70
2022/12/26 18:09:37;;;;;;;1.45;1.15;;;;;;;5.89;78.70;99579.59;4334066;33;33275;-71
2022/12/26 18:12:06;;;;;;;1.98;1.58;;;;;;;4.93;86.01;99574.81;4333938;33;33416;-71
2022/12/26 18:14:34;;;;;;;1.77;1.67;;;;;;;4.59;86.03;99573.41;4334174;33;33928;-71
2022/12/26 18:17:02;;;;;;;0.90;0.90;;;;;;;5.62;81.68;99563.75;4333856;33;35038;-70
2022/12/26 18:19:31;;;;;;;1.90;1.73;;;;;;;5.35;82.01;99562.53;4334164;33;35166;-70
2022/12/26 18:22:15;;;;;;;0.98;0.98;;;;;;;5.20;85.31;99562.31;4333806;33;33437;-70
2022/12/26 18:25:05;;;;;;;1.45;1.42;;;;;;;5.22;84.46;99561.47;4333845;33;32969;-68
2022/12/26 18:27:36;;;;;;;0.80;0.80;;;;;;;5.85;79.50;99546.78;4333869;33;36246;-67
2022/12/26 18:30:05;;;;;;;2.95;1.55;;;;;;;5.05;82.49;99548.34;4333986;33;34308;-73
2022/12/26 18:32:33;;;;;;;0.80;0.80;;;;;;;5.08;83.08;99550.06;4333575;33;33450;-68
2022/12/26 18:35:01;;;;;;;1.40;1.30;;;;;;;4.77;83.72;99559.09;4333901;33;33751;-70
2022/12/26 18:37:29;;;;;;;3.30;1.77;;;;;;;5.15;80.79;99553.63;4333666;33;34976;-68
2022/12/26 18:39:57;;;;;;;5.32;2.95;;;;;;;5.64;79.25;99546.53;4333838;33;34333;-68
2022/12/26 18:42:26;;;;;;;1.15;1.15;;;;;;;5.71;80.26;99543.19;4332583;33;33494;-68
2022/12/26 18:44:54;;;;;;;2.85;2.17;;;;;;;5.74;78.90;99548.41;4333535;33;34019;-71
2022/12/26 18:47:22;;;;;;;3.10;1.15;;;;;;;5.75;78.38;99551.84;4333629;33;35969;-69
2022/12/26 18:49:50;;;;;;;1.95;1.85;;;;;;;5.51;78.88;99548.09;4332709;33;34433;-69
2022/12/26 18:52:22;;;;;;;1.52;1.42;;;;;;;5.62;78.74;99545.66;4333758;33;33501;-71
2022/12/26 18:54:50;;;;;;;1.48;1.45;;;;;;;5.42;82.44;99548.84;4333846;33;34969;-69
2022/12/26 18:57:19;;;;;;;3.17;2.87;;;;;;;5.62;79.19;99540.50;4333415;33;35912;-68
2022/12/26 18:59:47;;;;;;;1.80;1.62;;;;;;;5.53;81.53;99536.06;4333701;33;34033;-73
2022/12/26 19:02:20;;;;;;;6.35;2.00;;;;;;;5.54;83.41;99532.66;4333795;33;32560;-69
2022/12/26 19:04:54;;;;;;;1.98;1.87;;;;;;;5.33;82.10;99538.41;4333851;33;33805;-74
2022/12/26 19:07:30;;;;;;;1.15;1.08;;;;;;;4.81;86.92;99533.34;4332400;33;35885;-73
2022/12/26 19:10:16;;;;;;;0.88;0.88;;;;;;;5.44;84.85;99534.25;4332173;33;35035;-74
2022/12/26 19:12:46;;;;;;;6.85;5.45;;;;;;;5.67;79.72;99539.69;4332530;33;34358;-76
2022/12/26 19:15:17;;;;;;;1.73;1.62;;;;;;;5.48;80.13;99545.47;4320446;33;33924;-68
2022/12/26 19:17:46;;;;;;;5.43;1.87;;;;;;;4.73;83.54;99556.44;4333369;33;35147;-73
2022/12/26 19:20:22;;;;;;;1.77;1.48;;;;;;;5.44;80.87;99547.16;4333042;33;34422;-68
2022/12/26 19:22:52;;;;;;;1.55;1.45;;;;;;;5.51;80.15;99543.81;4320637;33;33524;-68
2022/12/26 19:25:24;;;;;;;1.27;1.25;;;;;;;4.81;90.69;99548.81;4320533;33;32997;-69
2022/12/26 19:27:52;;;;;;;1.75;1.62;;;;;;;5.17;88.17;99539.91;4320531;33;35905;-69
2022/12/26 19:30:21;;;;;;;1.40;1.33;;;;;;;5.64;83.84;99538.78;4333540;33;34504;-69
2022/12/26 19:32:49;;;;;;;1.15;1.10;;;;;;;5.90;79.11;99539.09;4333714;33;34243;-69
2022/12/26 19:35:17;;;;;;;3.40;3.10;;;;;;;5.66;79.66;99539.66;4333565;33;33922;-69
2022/12/26 19:37:46;;;;;;;2.15;1.95;;;;;;;5.72;79.91;99551.78;4333421;33;35201;-69
2022/12/26 19:40:14;;;;;;;0.73;0.73;;;;;;;4.96;83.21;99548.22;4333389;33;35140;-69
2022/12/26 19:42:52;;;;;;;1.98;1.87;;;;;;;5.67;81.27;99537.13;4333524;33;33406;-68
2022/12/26 19:45:20;;;;;;;3.03;2.37;;;;;;;5.60;82.41;99537.88;4329446;33;34019;-69
2022/12/26 19:47:48;;;;;;;1.20;1.20;;;;;;;5.31;83.24;99545.25;4305495;33;35043;-69
2022/12/26 19:50:17;;;;;;;1.85;1.75;;;;;;;5.26;83.56;99544.34;4318645;33;34525;-69
2022/12/26 19:52:45;;;;;;;2.37;2.17;;;;;;;5.48;86.53;99548.91;4318565;33;33490;-68
2022/12/26 19:55:13;;;;;;;2.75;2.12;;;;;;;6.02;83.64;99546.16;4318686;33;34039;-68
2022/12/26 19:57:41;;;;;;;1.65;1.55;;;;;;;6.11;81.21;99530.75;4318625;33;35720;-68
2022/12/26 20:00:10;;;;;;;3.90;1.77;;;;;;;5.93;81.21;99530.50;4318467;33;35125;-69
2022/12/26 20:02:38;;;;;;;3.97;3.28;;;;;;;5.23;84.78;99541.72;4318497;33;34248;-69
2022/12/26 20:05:10;;;;;;;12.52;11.27;;;;;;;5.47;86.84;99560.13;4318525;33;34037;-69
2022/12/26 20:07:38;;;;;;;28.23;16.80;;;;;;;5.54;88.89;99562.75;4305408;33;35173;-69
2022/12/26 20:10:06;;;;;;;3.08;2.85;;;;;;;5.82;89.57;99590.72;4318249;33;35148;-69
2022/12/26 20:12:34;;;;;;;1.20;1.10;;;;;;;5.53;87.87;99602.38;4305021;33;33641;-69
2022/12/26 20:15:03;;;;;;;11.32;5.12;;;;;;;5.92;86.63;99601.16;4318287;33;33870;-69
2022/12/26 20:17:31;;;;;;;13.18;4.15;;;;;;;5.29;88.14;99583.97;4318158;33;35158;-69
2022/12/26 20:19:59;;;;;;;3.08;2.87;;;;;;;5.83;86.36;99607.06;4318409;33;34452;-69
2022/12/26 20:22:28;;;;;;;6.37;5.70;;;;;;;6.19;84.63;99600.62;4319157;33;34220;-69
2022/12/26 20:24:56;;;;;;;4.57;4.28;;;;;;;6.18;84.11;99589.44;4320199;33;35425;-69
2022/12/26 20:27:24;;;;;;;3.42;2.58;;;;;;;6.24;83.44;99584.31;4319994;33;35922;-69
2022/12/26 20:29:52;;;;;;;5.80;4.78;;;;;;;6.02;86.66;99584.94;4320308;33;34387;-69
2022/12/26 20:32:20;;;;;;;5.10;4.60;;;;;;;6.29;87.26;99575.75;4320245;33;33352;-69
2022/12/26 20:34:48;;;;;;;3.22;2.30;;;;;;;6.53;86.32;99573.41;4319106;33;33763;-69
2022/12/26 20:37:17;;;;;;;2.20;2.00;;;;;;;6.34;89.53;99576.66;4318931;33;34940;-69
2022/12/26 20:39:45;;;;;;;2.05;1.92;;;;;;;6.78;89.33;99566.72;4320179;33;34267;-69
2022/12/26 20:42:15;;;;;;;4.85;3.35;;;;;;;6.39;88.84;99562.94;4320081;33;34122;-69
2022/12/26 20:44:43;;;;;;;2.03;1.92;;;;;;;6.90;87.20;99553.00;4318823;33;33907;-69
2022/12/26 20:47:11;;;;;;;1.48;1.37;;;;;;;6.79;85.78;99549.47;4320117;33;35306;-68
2022/12/26 20:49:39;;;;;;;3.50;1.65;;;;;;;6.19;93.15;99552.34;4320037;33;34456;-69
2022/12/26 20:52:07;;;;;;;2.05;1.95;;;;;;;6.43;92.63;99540.53;4320027;33;33413;-69
2022/12/26 20:54:36;;;;;;;1.12;1.10;;;;;;;7.32;87.61;99541.19;4319947;33;34688;-69
2022/12/26 20:57:04;;;;;;;3.40;3.03;;;;;;;6.96;87.54;99552.19;4318749;33;35048;-69
2022/12/26 20:59:32;;;;;;;2.35;1.98;;;;;;;6.93;89.90;99545.25;4319990;33;34614;-69
2022/12/26 21:02:00;;;;;;;3.37;1.83;;;;;;;7.11;89.62;99544.53;4318843;33;33569;-69
2022/12/26 21:04:29;;;;;;;0.73;0.73;;;;;;;7.76;85.01;99530.19;4320033;33;34682;-69
2022/12/26 21:06:57;;;;;;;2.65;2.45;;;;;;;7.50;86.02;99535.25;4319844;33;35149;-69
2022/12/26 21:09:25;;;;;;;3.12;1.95;;;;;;;7.37;87.69;99536.03;4318768;33;35225;-69
2022/12/26 21:11:53;;;;;;;3.78;1.75;;;;;;;6.99;87.86;99534.09;4319901;33;33462;-69
2022/12/26 21:14:22;;;;;;;0.93;0.93;;;;;;;6.86;88.61;99555.56;4319910;33;33837;-69
2022/12/26 21:16:59;;;;;;;3.67;2.35;;;;;;;6.95;90.57;99560.78;4319923;33;35153;-69
2022/12/26 21:19:28;;;;;;;4.43;3.72;;;;;;;7.44;88.83;99570.62;4319974;33;35209;-69
2022/12/26 21:21:56;;;;;;;5.62;4.78;;;;;;;6.97;91.05;99577.19;4319792;33;33346;-69
2022/12/26 21:24:27;;;;;;;2.72;2.53;;;;;;;7.12;90.78;99576.47;4319862;33;34598;-69
2022/12/26 21:26:55;;;;;;;2.50;2.30;;;;;;;7.32;90.26;99574.84;4319843;33;35950;-69
2022/12/26 21:29:28;;;;;;;1.70;1.60;;;;;;;7.67;87.68;99575.91;4319770;33;34375;-69
2022/12/26 21:31:58;;;;;;;6.22;4.65;;;;;;;8.18;84.35;99578.72;4306968;33;34271;-69
2022/12/26 21:34:28;;;;;;;11.65;8.75;;;;;;;8.09;86.03;99575.22;4318425;33;33906;-69
2022/12/26 21:39:44;;;;;;;;;;;;;;;8.37;84.34;99564.91;4309132;33;34520;-69
2022/12/26 21:42:15;;;;;;;2.45;2.25;;;;;;;8.59;81.99;99565.81;4318719;33;33450;-69
2022/12/26 21:44:43;;;;;;;3.37;2.53;;;;;;;7.84;85.89;99563.03;4319559;33;33916;-69
2022/12/26 21:47:11;;;;;;;3.22;2.97;;;;;;;7.32;90.93;99572.25;4319742;33;35088;-69
2022/12/26 21:49:39;;;;;;;4.03;3.72;;;;;;;7.52;92.65;99568.94;4319933;33;35086;-69
2022/12/26 21:52:08;;;;;;;3.12;2.90;;;;;;;7.81;91.19;99558.69;4319683;33;33447;-69
2022/12/26 21:57:24;;;;;;;;;;;;;;;8.52;83.79;99558.91;4319772;33;35208;-69
2022/12/26 21:59:55;;;;;;;2.30;2.10;;;;;;;8.04;84.29;99558.78;4319640;33;35293;-69
2022/12/26 22:05:12;;;;;;;2.15;1.27;;;;;;;8.47;83.07;99566.69;4308660;33;34117;-69
2022/12/26 22:07:50;;;;;;;1.20;1.17;;;;;;;8.79;80.77;99568.47;4318477;33;36036;-69
2022/12/26 22:13:10;;;;;;;1.48;1.37;;;;;;;8.12;85.13;99570.03;4319551;33;33497;-69
2022/12/26 22:16:04;;;;;;;1.23;1.10;;;;;;;8.24;86.28;99565.75;4319670;33;33907;-70
2022/12/26 22:18:37;;;;;;;6.20;3.70;;;;;;;7.85;88.62;99575.13;4308548;33;35150;-69
2022/12/26 22:21:08;;;;;;;3.70;3.45;;;;;;;8.00;89.15;99567.41;4319531;33;35227;-69
2022/12/26 22:23:38;;;;;;;3.28;3.00;;;;;;;8.00;90.45;99572.59;4306448;33;34323;-72
2022/12/26 22:26:09;;;;;;;3.35;3.05;;;;;;;8.41;89.74;99571.84;4319453;33;34838;-69
2022/12/26 22:28:38;;;;;;;1.67;1.12;;;;;;;8.55;88.65;99564.09;4294465;33;35184;-70
2022/12/26 22:31:06;;;;;;;1.67;1.58;;;;;;;8.25;89.75;99567.47;4318362;33;34494;-70
2022/12/26 22:33:34;;;;;;;3.72;3.42;;;;;;;8.49;89.49;99577.09;4306387;33;33332;-70
2022/12/26 22:36:07;;;;;;;3.97;3.25;;;;;;;8.44;90.07;99571.88;4306177;33;32782;-70
2022/12/26 22:38:36;;;;;;;4.55;2.65;;;;;;;8.99;88.44;99565.84;4306557;33;34895;-70
2022/12/26 22:41:04;;;;;;;10.65;3.15;;;;;;;9.46;82.84;99551.06;4319535;33;35180;-69
2022/12/26 22:43:32;;;;;;;4.90;1.98;;;;;;;8.94;84.31;99553.72;4319352;33;33520;-69
2022/12/26 22:46:01;;;;;;;17.95;4.95;;;;;;;8.28;89.92;99550.19;4318629;33;33113;-69
2022/12/26 22:48:29;;;;;;;1.12;1.10;;;;;;;8.40;91.20;99557.16;4319346;33;35848;-69
2022/12/26 22:50:57;;;;;;;2.90;2.67;;;;;;;8.40;90.64;99558.84;4318283;33;35402;-70
2022/12/26 22:53:27;;;;;;;1.50;1.40;;;;;;;8.70;89.25;99553.75;4319277;33;33410;-69
2022/12/26 22:55:58;;;;;;;4.75;3.05;;;;;;;8.88;86.85;99547.66;4319186;33;33876;-69
2022/12/26 22:58:27;;;;;;;3.05;2.30;;;;;;;8.45;89.31;99552.88;4306132;33;35045;-69
2022/12/26 23:00:58;;;;;;;2.05;1.95;;;;;;;8.48;89.90;99562.38;4319221;33;34425;-70
2022/12/26 23:03:27;;;;;;;3.35;3.05;;;;;;;8.63;89.27;99571.88;4318048;33;33324;-69
2022/12/26 23:05:55;;;;;;;4.12;3.30;;;;;;;8.15;88.40;99575.25;4305799;33;34015;-69
2022/12/26 23:08:26;;;;;;;4.22;2.47;;;;;;;8.68;87.13;99599.59;4319114;33;34940;-69
2022/12/26 23:10:57;;;;;;;2.30;2.15;;;;;;;8.07;88.92;99602.03;4306451;33;35145;-69
2022/12/26 23:13:25;;;;;;;6.75;3.58;;;;;;;8.44;87.60;99602.16;4306384;33;33904;-70
2022/12/26 23:16:18;;;;;;;3.00;2.00;;;;;;;8.47;87.56;99616.00;4319157;33;33878;-70
2022/12/26 23:21:49;;;;;;;1.15;1.05;;;;;;;8.67;86.85;99599.59;4319040;33;35284;-70
2022/12/26 23:24:23;;;;;;;0.80;0.80;;;;;;;8.99;89.26;99602.19;4317975;33;33455;-70
2022/12/26 23:32:40;;;;;;;1.52;1.42;;;;;;;9.37;90.40;99593.53;4319015;33;35253;-70
2022/12/26 23:35:10;;;;;;;2.75;1.52;;;;;;;9.74;88.72;99582.13;4305930;33;34218;-70
2022/12/26 23:37:39;;;;;;;0.60;0.60;;;;;;;9.72;88.71;99578.69;4317633;33;33417;-70
2022/12/26 23:40:10;;;;;;;2.50;2.35;;;;;;;9.91;86.78;99595.09;4319007;33;35887;-70
2022/12/26 23:42:38;;;;;;;1.35;1.25;;;;;;;9.79;86.48;99601.19;4317584;33;34350;-70
2022/12/26 23:45:08;;;;;;;1.70;1.60;;;;;;;9.50;87.53;99594.34;4318516;33;34253;-70
2022/12/26 23:47:37;;;;;;;2.05;1.05;;;;;;;9.90;85.84;99591.63;4305701;33;34789;-70
2022/12/26 23:50:07;;;;;;;2.80;2.60;;;;;;;10.08;83.66;99590.69;4318628;33;35109;-70
2022/12/26 23:52:35;;;;;;;5.85;2.42;;;;;;;9.69;85.22;99605.56;4318877;33;33590;-70
2022/12/26 23:55:04;;;;;;;2.00;1.20;;;;;;;9.92;84.36;99608.09;4318632;33;33436;-70
2022/12/26 23:57:33;;;;;;;2.80;1.48;;;;;;;9.82;84.44;99606.41;4319590;33;34041;-70
